sensor_id;sensor_type;location;lat;lon;timestamp;pressure;altitude;pressure_sealevel;temperature;humidity
32243;BME280;18731;42.830;24.390;2022-10-31T03:05:30;95024.47;;;10.12;73.99
32243;BME280;18731;42.830;24.390;2022-10-31T03:13:38;95025.91;;;10.18;73.93
32243;BME280;18731;42.830;24.390;2022-10-31T03:16:17;95022.13;;;10.19;73.80
32243;BME280;18731;42.830;24.390;2022-10-31T03:19:00;95015.53;;;10.08;74.10
32243;BME280;18731;42.830;24.390;2022-10-31T03:21:31;95028.09;;;10.16;74.01
32243;BME280;18731;42.830;24.390;2022-10-31T03:23:59;95023.84;;;10.15;73.71
32243;BME280;18731;42.830;24.390;2022-10-31T03:26:26;95015.84;;;10.15;73.59
32243;BME280;18731;42.830;24.390;2022-10-31T03:29:01;95029.84;;;10.21;73.39
32243;BME280;18731;42.830;24.390;2022-10-31T03:31:35;95026.41;;;10.20;73.61
32243;BME280;18731;42.830;24.390;2022-10-31T03:34:02;95031.84;;;10.15;74.01
32243;BME280;18731;42.830;24.390;2022-10-31T03:36:33;95016.47;;;10.12;73.82
32243;BME280;18731;42.830;24.390;2022-10-31T03:39:02;95024.78;;;10.19;73.88
32243;BME280;18731;42.830;24.390;2022-10-31T03:41:32;95030.47;;;10.26;74.05
32243;BME280;18731;42.830;24.390;2022-10-31T03:44:08;95035.19;;;10.21;74.61
32243;BME280;18731;42.830;24.390;2022-10-31T03:46:35;94993.69;;;9.89;74.52
32243;BME280;18731;42.830;24.390;2022-10-31T03:49:02;95043.19;;;10.29;74.40
32243;BME280;18731;42.830;24.390;2022-10-31T03:51:50;95027.81;;;10.26;74.22
32243;BME280;18731;42.830;24.390;2022-10-31T03:57:01;95041.31;;;10.39;73.92
32243;BME280;18731;42.830;24.390;2022-10-31T03:59:36;95028.13;;;10.34;73.80
32243;BME280;18731;42.830;24.390;2022-10-31T04:02:16;95025.78;;;10.32;73.74
32243;BME280;18731;42.830;24.390;2022-10-31T04:04:44;95010.69;;;10.19;74.19
32243;BME280;18731;42.830;24.390;2022-10-31T04:07:10;95039.63;;;10.43;74.06
32243;BME280;18731;42.830;24.390;2022-10-31T04:09:38;95030.66;;;10.39;73.75
32243;BME280;18731;42.830;24.390;2022-10-31T04:12:08;95053.13;;;10.46;73.83
32243;BME280;18731;42.830;24.390;2022-10-31T04:14:38;95056.13;;;10.45;73.67
32243;BME280;18731;42.830;24.390;2022-10-31T04:17:07;95046.19;;;10.37;73.98
32243;BME280;18731;42.830;24.390;2022-10-31T04:19:35;95047.28;;;10.36;73.85
32243;BME280;18731;42.830;24.390;2022-10-31T04:22:01;95064.28;;;10.48;73.80
32243;BME280;18731;42.830;24.390;2022-10-31T04:24:26;95049.06;;;10.40;74.41
32243;BME280;18731;42.830;24.390;2022-10-31T04:26:52;95044.50;;;10.41;74.19
32243;BME280;18731;42.830;24.390;2022-10-31T04:29:17;95066.34;;;10.51;74.45
32243;BME280;18731;42.830;24.390;2022-10-31T04:31:43;95049.38;;;10.47;74.57
32243;BME280;18731;42.830;24.390;2022-10-31T04:34:09;95063.34;;;10.53;74.10
32243;BME280;18731;42.830;24.390;2022-10-31T04:36:34;95057.84;;;10.49;74.49
32243;BME280;18731;42.830;24.390;2022-10-31T04:39:00;95069.63;;;10.57;74.27
32243;BME280;18731;42.830;24.390;2022-10-31T04:41:25;95073.56;;;10.59;73.89
32243;BME280;18731;42.830;24.390;2022-10-31T04:43:51;95057.38;;;10.56;74.04
32243;BME280;18731;42.830;24.390;2022-10-31T04:46:17;95058.47;;;10.55;74.06
32243;BME280;18731;42.830;24.390;2022-10-31T04:48:42;95059.41;;;10.50;74.11
32243;BME280;18731;42.830;24.390;2022-10-31T04:51:08;95075.59;;;10.62;73.98
32243;BME280;18731;42.830;24.390;2022-10-31T04:53:33;95066.66;;;10.58;73.94
32243;BME280;18731;42.830;24.390;2022-10-31T04:55:59;95065.88;;;10.58;73.85
32243;BME280;18731;42.830;24.390;2022-10-31T04:58:26;95062.09;;;10.59;73.67
32243;BME280;18731;42.830;24.390;2022-10-31T05:00:53;95075.28;;;10.64;73.54
32243;BME280;18731;42.830;24.390;2022-10-31T05:03:19;95081.09;;;10.57;73.91
32243;BME280;18731;42.830;24.390;2022-10-31T05:05:45;95079.53;;;10.56;74.13
32243;BME280;18731;42.830;24.390;2022-10-31T05:08:10;95077.78;;;10.52;74.30
32243;BME280;18731;42.830;24.390;2022-10-31T05:10:36;95080.00;;;10.50;74.30
32243;BME280;18731;42.830;24.390;2022-10-31T05:13:03;95065.84;;;10.41;73.93
32243;BME280;18731;42.830;24.390;2022-10-31T05:15:32;95070.22;;;10.37;74.13
32243;BME280;18731;42.830;24.390;2022-10-31T05:17:58;95085.75;;;10.35;74.06
32243;BME280;18731;42.830;24.390;2022-10-31T05:20:27;95091.38;;;10.33;74.15
32243;BME280;18731;42.830;24.390;2022-10-31T05:22:54;95093.56;;;10.22;74.35
32243;BME280;18731;42.830;24.390;2022-10-31T05:25:22;95091.50;;;10.19;74.55
32243;BME280;18731;42.830;24.390;2022-10-31T05:27:50;95102.16;;;10.19;74.79
32243;BME280;18731;42.830;24.390;2022-10-31T05:30:18;95104.16;;;10.05;75.39
32243;BME280;18731;42.830;24.390;2022-10-31T05:32:46;95094.25;;;9.97;76.25
32243;BME280;18731;42.830;24.390;2022-10-31T05:35:20;95108.88;;;9.68;77.02
32243;BME280;18731;42.830;24.390;2022-10-31T05:37:46;95102.22;;;9.57;77.08
32243;BME280;18731;42.830;24.390;2022-10-31T05:40:13;95117.66;;;9.69;77.36
32243;BME280;18731;42.830;24.390;2022-10-31T05:42:40;95055.66;;;9.24;76.96
32243;BME280;18731;42.830;24.390;2022-10-31T05:45:14;95116.03;;;9.59;78.02
32243;BME280;18731;42.830;24.390;2022-10-31T05:47:40;95127.47;;;9.60;77.03
32243;BME280;18731;42.830;24.390;2022-10-31T05:50:07;95124.78;;;9.51;77.75
32243;BME280;18731;42.830;24.390;2022-10-31T05:52:33;95133.69;;;9.47;78.12
32243;BME280;18731;42.830;24.390;2022-10-31T05:54:59;95125.25;;;9.53;78.25
32243;BME280;18731;42.830;24.390;2022-10-31T05:57:24;95134.78;;;9.23;78.84
32243;BME280;18731;42.830;24.390;2022-10-31T05:59:50;95134.00;;;9.23;79.54
32243;BME280;18731;42.830;24.390;2022-10-31T06:02:20;95118.00;;;9.23;80.46
32243;BME280;18731;42.830;24.390;2022-10-31T06:04:45;95119.47;;;9.29;79.97
32243;BME280;18731;42.830;24.390;2022-10-31T06:07:12;95145.63;;;9.27;79.09
32243;BME280;18731;42.830;24.390;2022-10-31T06:09:38;95146.53;;;9.22;79.67
32243;BME280;18731;42.830;24.390;2022-10-31T06:12:03;95094.88;;;8.87;80.09
32243;BME280;18731;42.830;24.390;2022-10-31T06:14:29;95153.97;;;9.34;79.69
32243;BME280;18731;42.830;24.390;2022-10-31T06:16:55;95148.09;;;9.46;79.62
32243;BME280;18731;42.830;24.390;2022-10-31T06:19:21;95150.78;;;9.77;79.38
32243;BME280;18731;42.830;24.390;2022-10-31T06:21:46;95157.13;;;10.20;78.79
32243;BME280;18731;42.830;24.390;2022-10-31T06:24:12;95140.75;;;10.53;77.93
32243;BME280;18731;42.830;24.390;2022-10-31T06:26:38;95145.34;;;10.87;75.94
32243;BME280;18731;42.830;24.390;2022-10-31T06:29:03;95158.41;;;11.32;74.78
32243;BME280;18731;42.830;24.390;2022-10-31T06:31:29;95156.94;;;11.69;73.32
32243;BME280;18731;42.830;24.390;2022-10-31T06:33:54;95150.56;;;12.08;71.69
32243;BME280;18731;42.830;24.390;2022-10-31T06:36:20;95098.94;;;12.07;70.10
32243;BME280;18731;42.830;24.390;2022-10-31T06:38:45;95160.00;;;12.73;69.46
32243;BME280;18731;42.830;24.390;2022-10-31T06:41:11;95153.34;;;13.00;67.91
32243;BME280;18731;42.830;24.390;2022-10-31T06:43:37;95154.25;;;13.33;66.81
32243;BME280;18731;42.830;24.390;2022-10-31T06:46:04;95161.66;;;13.69;64.65
32243;BME280;18731;42.830;24.390;2022-10-31T06:48:31;95162.97;;;13.96;63.84
32243;BME280;18731;42.830;24.390;2022-10-31T06:51:00;95155.84;;;14.25;63.67
32243;BME280;18731;42.830;24.390;2022-10-31T06:53:26;95073.50;;;13.92;62.50
32243;BME280;18731;42.830;24.390;2022-10-31T06:55:55;95143.78;;;14.67;60.73
32243;BME280;18731;42.830;24.390;2022-10-31T06:58:21;95142.84;;;15.00;60.69
32243;BME280;18731;42.830;24.390;2022-10-31T07:00:47;95131.63;;;15.10;60.16
32243;BME280;18731;42.830;24.390;2022-10-31T07:03:13;95144.94;;;15.47;59.42
32243;BME280;18731;42.830;24.390;2022-10-31T07:05:41;95149.38;;;15.67;58.09
32243;BME280;18731;42.830;24.390;2022-10-31T07:08:11;95060.81;;;15.34;57.55
32243;BME280;18731;42.830;24.390;2022-10-31T07:10:38;95131.13;;;16.04;56.69
32243;BME280;18731;42.830;24.390;2022-10-31T07:13:07;95108.38;;;16.17;56.05
32243;BME280;18731;42.830;24.390;2022-10-31T07:15:36;95139.09;;;16.79;55.98
32243;BME280;18731;42.830;24.390;2022-10-31T07:18:04;95137.09;;;17.11;54.62
32243;BME280;18731;42.830;24.390;2022-10-31T07:20:30;95131.50;;;17.39;53.68
32243;BME280;18731;42.830;24.390;2022-10-31T07:22:56;95122.19;;;17.56;52.61
32243;BME280;18731;42.830;24.390;2022-10-31T07:25:22;95134.28;;;17.81;52.84
32243;BME280;18731;42.830;24.390;2022-10-31T07:27:48;95139.34;;;18.06;53.71
32243;BME280;18731;42.830;24.390;2022-10-31T07:30:15;95128.56;;;18.28;53.59
32243;BME280;18731;42.830;24.390;2022-10-31T07:32:46;95119.97;;;18.46;52.06
32243;BME280;18731;42.830;24.390;2022-10-31T07:35:15;95126.81;;;18.62;51.24
32243;BME280;18731;42.830;24.390;2022-10-31T07:37:41;95129.78;;;18.80;50.74
32243;BME280;18731;42.830;24.390;2022-10-31T07:40:08;95114.53;;;18.95;49.40
32243;BME280;18731;42.830;24.390;2022-10-31T07:42:38;95115.78;;;19.01;49.55
32243;BME280;18731;42.830;24.390;2022-10-31T07:45:05;95112.34;;;19.04;49.18
32243;BME280;18731;42.830;24.390;2022-10-31T07:47:53;95080.47;;;19.20;49.61
32243;BME280;18731;42.830;24.390;2022-10-31T07:50:22;95104.09;;;19.53;48.61
32243;BME280;18731;42.830;24.390;2022-10-31T07:55:26;95108.72;;;19.53;47.07
32243;BME280;18731;42.830;24.390;2022-10-31T07:58:03;95108.41;;;19.58;45.93
32243;BME280;18731;42.830;24.390;2022-10-31T08:00:30;95103.59;;;19.78;46.54
32243;BME280;18731;42.830;24.390;2022-10-31T08:03:04;95113.16;;;19.68;46.13
32243;BME280;18731;42.830;24.390;2022-10-31T08:05:30;95102.44;;;19.79;46.77
32243;BME280;18731;42.830;24.390;2022-10-31T08:07:57;95094.53;;;19.63;45.68
32243;BME280;18731;42.830;24.390;2022-10-31T08:10:23;95107.06;;;19.78;47.49
32243;BME280;18731;42.830;24.390;2022-10-31T08:12:57;95092.31;;;19.72;46.21
32243;BME280;18731;42.830;24.390;2022-10-31T08:15:24;95105.59;;;19.84;45.78
32243;BME280;18731;42.830;24.390;2022-10-31T08:17:50;95097.16;;;19.93;46.43
32243;BME280;18731;42.830;24.390;2022-10-31T08:20:15;95026.34;;;19.54;46.22
32243;BME280;18731;42.830;24.390;2022-10-31T08:22:41;95017.94;;;19.63;46.23
32243;BME280;18731;42.830;24.390;2022-10-31T08:25:08;95099.38;;;20.24;45.45
32243;BME280;18731;42.830;24.390;2022-10-31T08:27:33;95098.00;;;20.41;44.91
32243;BME280;18731;42.830;24.390;2022-10-31T08:29:59;95083.75;;;20.55;44.75
32243;BME280;18731;42.830;24.390;2022-10-31T08:32:25;95076.91;;;20.72;44.45
32243;BME280;18731;42.830;24.390;2022-10-31T08:34:50;95089.47;;;20.94;43.78
32243;BME280;18731;42.830;24.390;2022-10-31T08:37:16;95086.56;;;21.28;44.17
32243;BME280;18731;42.830;24.390;2022-10-31T08:39:46;95094.41;;;21.47;42.87
32243;BME280;18731;42.830;24.390;2022-10-31T08:42:13;95097.56;;;21.70;43.17
32243;BME280;18731;42.830;24.390;2022-10-31T08:44:39;95095.63;;;21.67;42.84
32243;BME280;18731;42.830;24.390;2022-10-31T08:47:05;95088.31;;;21.96;42.40
32243;BME280;18731;42.830;24.390;2022-10-31T08:49:31;95078.63;;;21.99;41.75
32243;BME280;18731;42.830;24.390;2022-10-31T08:51:56;95048.31;;;22.00;41.00
32243;BME280;18731;42.830;24.390;2022-10-31T08:54:22;95086.03;;;22.66;40.92
32243;BME280;18731;42.830;24.390;2022-10-31T08:56:47;95091.44;;;23.01;40.82
32243;BME280;18731;42.830;24.390;2022-10-31T08:59:13;95071.22;;;23.02;40.01
32243;BME280;18731;42.830;24.390;2022-10-31T09:01:39;95097.56;;;23.41;39.81
32243;BME280;18731;42.830;24.390;2022-10-31T09:04:04;95087.41;;;23.59;38.79
32243;BME280;18731;42.830;24.390;2022-10-31T09:06:30;95102.13;;;23.72;38.67
32243;BME280;18731;42.830;24.390;2022-10-31T09:08:55;95033.63;;;23.70;37.20
32243;BME280;18731;42.830;24.390;2022-10-31T09:11:21;95085.50;;;24.19;37.95
32243;BME280;18731;42.830;24.390;2022-10-31T09:13:47;95089.19;;;24.50;38.23
32243;BME280;18731;42.830;24.390;2022-10-31T09:16:12;95095.25;;;24.68;37.36
32243;BME280;18731;42.830;24.390;2022-10-31T09:18:38;95080.72;;;24.78;37.74
32243;BME280;18731;42.830;24.390;2022-10-31T09:21:03;95082.47;;;25.03;36.44
32243;BME280;18731;42.830;24.390;2022-10-31T09:23:29;95091.81;;;25.05;36.79
32243;BME280;18731;42.830;24.390;2022-10-31T09:25:55;95089.47;;;25.04;36.08
32243;BME280;18731;42.830;24.390;2022-10-31T09:28:22;95092.22;;;25.04;36.89
32243;BME280;18731;42.830;24.390;2022-10-31T09:30:50;95092.50;;;25.13;35.68
32243;BME280;18731;42.830;24.390;2022-10-31T09:33:17;95093.72;;;25.08;35.77
32243;BME280;18731;42.830;24.390;2022-10-31T09:35:42;95095.38;;;24.98;36.76
32243;BME280;18731;42.830;24.390;2022-10-31T09:38:16;95095.09;;;25.27;36.57
32243;BME280;18731;42.830;24.390;2022-10-31T09:44:00;95091.63;;;25.87;34.04
32243;BME280;18731;42.830;24.390;2022-10-31T09:46:37;95090.69;;;26.01;35.03
32243;BME280;18731;42.830;24.390;2022-10-31T09:52:10;95077.22;;;26.64;33.30
32243;BME280;18731;42.830;24.390;2022-10-31T09:57:04;95088.59;;;26.86;31.77
32243;BME280;18731;42.830;24.390;2022-10-31T09:59:37;95077.34;;;26.30;32.46
32243;BME280;18731;42.830;24.390;2022-10-31T10:02:10;95024.75;;;26.19;32.85
32243;BME280;18731;42.830;24.390;2022-10-31T10:04:55;95078.34;;;26.90;32.96
32243;BME280;18731;42.830;24.390;2022-10-31T10:22:28;95065.56;;;26.10;33.94
32243;BME280;18731;42.830;24.390;2022-10-31T10:32:58;95050.47;;;25.37;34.98
32243;BME280;18731;42.830;24.390;2022-10-31T10:35:29;95041.19;;;24.97;34.96
32243;BME280;18731;42.830;24.390;2022-10-31T10:40:43;95037.34;;;24.87;34.26
32243;BME280;18731;42.830;24.390;2022-10-31T10:43:22;95046.72;;;24.86;34.84
32243;BME280;18731;42.830;24.390;2022-10-31T10:45:50;95029.75;;;24.68;35.05
32243;BME280;18731;42.830;24.390;2022-10-31T10:48:45;95030.34;;;24.45;35.14
32243;BME280;18731;42.830;24.390;2022-10-31T10:51:49;95025.09;;;24.65;36.09
32243;BME280;18731;42.830;24.390;2022-10-31T10:59:50;95013.56;;;25.22;34.54
32243;BME280;18731;42.830;24.390;2022-10-31T11:02:27;95027.97;;;25.56;34.24
32243;BME280;18731;42.830;24.390;2022-10-31T11:04:54;95017.53;;;25.78;33.83
32243;BME280;18731;42.830;24.390;2022-10-31T11:07:20;95003.09;;;25.47;34.59
32243;BME280;18731;42.830;24.390;2022-10-31T11:09:46;95027.19;;;25.56;33.46
32243;BME280;18731;42.830;24.390;2022-10-31T11:12:23;95012.44;;;25.80;33.24
32243;BME280;18731;42.830;24.390;2022-10-31T11:14:55;95013.56;;;25.83;33.09
32243;BME280;18731;42.830;24.390;2022-10-31T11:17:34;95021.03;;;25.48;33.92
32243;BME280;18731;42.830;24.390;2022-10-31T11:22:30;95008.66;;;25.98;33.20
32243;BME280;18731;42.830;24.390;2022-10-31T11:24:56;95004.56;;;25.55;33.59
32243;BME280;18731;42.830;24.390;2022-10-31T11:27:24;94996.53;;;25.72;33.64
32243;BME280;18731;42.830;24.390;2022-10-31T11:29:50;95004.69;;;26.02;32.97
32243;BME280;18731;42.830;24.390;2022-10-31T11:32:21;94997.03;;;25.90;32.87
32243;BME280;18731;42.830;24.390;2022-10-31T11:34:51;94963.13;;;25.30;33.05
32243;BME280;18731;42.830;24.390;2022-10-31T11:37:24;94992.72;;;25.05;34.18
32243;BME280;18731;42.830;24.390;2022-10-31T11:39:56;94997.09;;;25.29;33.79
32243;BME280;18731;42.830;24.390;2022-10-31T11:42:25;94997.91;;;25.26;33.31
32243;BME280;18731;42.830;24.390;2022-10-31T11:44:53;94995.81;;;25.68;33.31
32243;BME280;18731;42.830;24.390;2022-10-31T11:47:29;94994.75;;;26.39;34.55
32243;BME280;18731;42.830;24.390;2022-10-31T11:50:02;94991.75;;;26.30;31.86
32243;BME280;18731;42.830;24.390;2022-10-31T11:52:37;94957.72;;;26.31;32.45
32243;BME280;18731;42.830;24.390;2022-10-31T11:57:43;94993.09;;;27.28;32.28
32243;BME280;18731;42.830;24.390;2022-10-31T12:00:36;94989.47;;;27.50;30.35
32243;BME280;18731;42.830;24.390;2022-10-31T12:03:18;94995.59;;;28.10;30.13
32243;BME280;18731;42.830;24.390;2022-10-31T12:05:58;94982.16;;;27.64;29.36
32243;BME280;18731;42.830;24.390;2022-10-31T12:08:30;94992.28;;;27.67;29.43
32243;BME280;18731;42.830;24.390;2022-10-31T12:13:45;95001.06;;;27.58;29.31
32243;BME280;18731;42.830;24.390;2022-10-31T12:16:31;94922.00;;;27.73;28.77
32243;BME280;18731;42.830;24.390;2022-10-31T12:21:59;94999.50;;;28.91;28.50
32243;BME280;18731;42.830;24.390;2022-10-31T12:28:02;94973.50;;;29.50;26.72
32243;BME280;18731;42.830;24.390;2022-10-31T12:39:04;95007.91;;;31.03;25.05
32243;BME280;18731;42.830;24.390;2022-10-31T12:41:36;95010.28;;;31.79;24.40
32243;BME280;18731;42.830;24.390;2022-10-31T12:58:29;95001.63;;;30.68;25.12
32243;BME280;18731;42.830;24.390;2022-10-31T13:01:11;95013.78;;;30.92;26.01
32243;BME280;18731;42.830;24.390;2022-10-31T13:04:00;95008.94;;;30.49;25.84
32243;BME280;18731;42.830;24.390;2022-10-31T13:06:36;95015.13;;;29.77;27.09
32243;BME280;18731;42.830;24.390;2022-10-31T13:09:09;95006.13;;;28.77;27.10
32243;BME280;18731;42.830;24.390;2022-10-31T13:11:45;94959.31;;;27.86;28.61
32243;BME280;18731;42.830;24.390;2022-10-31T13:14:26;95015.25;;;27.17;29.45
32243;BME280;18731;42.830;24.390;2022-10-31T13:16:53;95001.13;;;26.75;30.38
32243;BME280;18731;42.830;24.390;2022-10-31T13:19:41;95024.56;;;26.33;31.17
32243;BME280;18731;42.830;24.390;2022-10-31T13:22:16;95020.78;;;25.70;32.13
32243;BME280;18731;42.830;24.390;2022-10-31T13:27:24;95008.78;;;24.58;33.18
32243;BME280;18731;42.830;24.390;2022-10-31T13:32:29;95026.50;;;23.87;35.77
32243;BME280;18731;42.830;24.390;2022-10-31T13:35:02;95009.63;;;23.30;37.09
32243;BME280;18731;42.830;24.390;2022-10-31T13:37:46;95000.50;;;22.70;37.90
32243;BME280;18731;42.830;24.390;2022-10-31T13:40:35;95009.88;;;22.55;37.57
32243;BME280;18731;42.830;24.390;2022-10-31T13:43:15;94981.16;;;22.15;38.15
32243;BME280;18731;42.830;24.390;2022-10-31T13:45:50;95016.88;;;21.96;39.39
32243;BME280;18731;42.830;24.390;2022-10-31T13:48:18;95019.94;;;21.62;40.23
32243;BME280;18731;42.830;24.390;2022-10-31T13:51:04;95027.66;;;21.49;40.58
32243;BME280;18731;42.830;24.390;2022-10-31T13:56:18;95024.78;;;20.41;41.46
32243;BME280;18731;42.830;24.390;2022-10-31T13:59:04;95024.81;;;20.45;43.38
32243;BME280;18731;42.830;24.390;2022-10-31T14:01:32;95020.06;;;20.35;44.06
32243;BME280;18731;42.830;24.390;2022-10-31T14:04:06;95015.59;;;20.05;43.02
32243;BME280;18731;42.830;24.390;2022-10-31T14:07:18;95029.06;;;19.95;43.51
32243;BME280;18731;42.830;24.390;2022-10-31T14:09:57;95024.34;;;19.88;43.47
32243;BME280;18731;42.830;24.390;2022-10-31T14:12:35;95028.44;;;19.71;45.24
32243;BME280;18731;42.830;24.390;2022-10-31T14:15:13;95020.66;;;19.66;46.36
32243;BME280;18731;42.830;24.390;2022-10-31T14:17:48;95014.69;;;19.50;45.57
32243;BME280;18731;42.830;24.390;2022-10-31T14:22:41;95033.06;;;19.34;47.24
32243;BME280;18731;42.830;24.390;2022-10-31T14:27:51;95017.16;;;18.95;47.20
32243;BME280;18731;42.830;24.390;2022-10-31T14:30:23;95028.81;;;18.99;47.05
32243;BME280;18731;42.830;24.390;2022-10-31T14:33:01;95023.94;;;18.82;48.29
32243;BME280;18731;42.830;24.390;2022-10-31T14:35:46;95005.16;;;18.62;47.78
32243;BME280;18731;42.830;24.390;2022-10-31T14:41:25;95036.28;;;18.53;49.85
32243;BME280;18731;42.830;24.390;2022-10-31T14:46:45;95037.53;;;18.33;49.22
32243;BME280;18731;42.830;24.390;2022-10-31T14:49:34;95040.50;;;18.24;50.38
32243;BME280;18731;42.830;24.390;2022-10-31T14:52:07;95047.25;;;18.14;50.69
32243;BME280;18731;42.830;24.390;2022-10-31T14:54:38;95038.97;;;18.04;50.22
32243;BME280;18731;42.830;24.390;2022-10-31T14:57:12;95050.09;;;17.98;51.30
32243;BME280;18731;42.830;24.390;2022-10-31T14:59:43;95046.44;;;17.87;51.11
32243;BME280;18731;42.830;24.390;2022-10-31T15:02:29;95057.00;;;17.73;51.68
32243;BME280;18731;42.830;24.390;2022-10-31T15:04:56;95039.91;;;17.46;51.80
32243;BME280;18731;42.830;24.390;2022-10-31T15:07:25;95058.44;;;17.48;52.88
32243;BME280;18731;42.830;24.390;2022-10-31T15:09:59;95058.66;;;17.39;52.27
32243;BME280;18731;42.830;24.390;2022-10-31T15:12:28;95053.06;;;17.28;52.98
32243;BME280;18731;42.830;24.390;2022-10-31T15:14:54;95062.16;;;17.20;53.64
32243;BME280;18731;42.830;24.390;2022-10-31T15:17:22;95058.09;;;17.11;53.66
32243;BME280;18731;42.830;24.390;2022-10-31T15:19:49;95048.53;;;16.94;53.70
32243;BME280;18731;42.830;24.390;2022-10-31T15:22:20;95066.03;;;16.84;54.23
32243;BME280;18731;42.830;24.390;2022-10-31T15:24:48;95052.44;;;16.61;54.39
32243;BME280;18731;42.830;24.390;2022-10-31T15:27:21;95068.59;;;16.61;54.54
32243;BME280;18731;42.830;24.390;2022-10-31T15:32:22;95073.25;;;16.45;54.88
32243;BME280;18731;42.830;24.390;2022-10-31T15:34:49;95075.25;;;16.32;55.15
32243;BME280;18731;42.830;24.390;2022-10-31T15:37:17;95072.31;;;16.22;55.94
32243;BME280;18731;42.830;24.390;2022-10-31T15:39:44;95072.94;;;16.15;55.52
32243;BME280;18731;42.830;24.390;2022-10-31T15:42:22;95051.91;;;15.89;55.67
32243;BME280;18731;42.830;24.390;2022-10-31T15:45:00;95038.53;;;15.61;55.98
32243;BME280;18731;42.830;24.390;2022-10-31T15:47:28;95083.84;;;15.75;56.73
32243;BME280;18731;42.830;24.390;2022-10-31T15:49:56;95080.81;;;15.61;57.11
32243;BME280;18731;42.830;24.390;2022-10-31T15:52:41;95087.94;;;15.57;57.30
32243;BME280;18731;42.830;24.390;2022-10-31T15:57:43;95086.31;;;15.24;58.69
32243;BME280;18731;42.830;24.390;2022-10-31T16:02:48;95086.94;;;15.05;59.46
32243;BME280;18731;42.830;24.390;2022-10-31T16:05:19;95094.66;;;15.07;59.66
32243;BME280;18731;42.830;24.390;2022-10-31T16:07:49;95102.75;;;14.95;60.04
32243;BME280;18731;42.830;24.390;2022-10-31T16:10:23;95100.78;;;14.79;60.20
32243;BME280;18731;42.830;24.390;2022-10-31T16:12:49;95051.56;;;14.39;60.47
32243;BME280;18731;42.830;24.390;2022-10-31T16:15:16;95111.09;;;14.65;60.63
32243;BME280;18731;42.830;24.390;2022-10-31T16:17:46;95116.56;;;14.69;60.53
32243;BME280;18731;42.830;24.390;2022-10-31T16:20:21;95121.53;;;14.55;61.22
32243;BME280;18731;42.830;24.390;2022-10-31T16:22:51;95124.00;;;14.47;61.47
32243;BME280;18731;42.830;24.390;2022-10-31T16:25:33;95123.28;;;14.38;61.51
32243;BME280;18731;42.830;24.390;2022-10-31T16:28:04;95123.63;;;14.37;61.47
32243;BME280;18731;42.830;24.390;2022-10-31T16:33:05;95128.31;;;14.28;61.83
32243;BME280;18731;42.830;24.390;2022-10-31T16:35:34;95134.69;;;14.23;62.01
32243;BME280;18731;42.830;24.390;2022-10-31T16:38:01;95137.94;;;14.16;62.32
32243;BME280;18731;42.830;24.390;2022-10-31T16:40:27;95031.41;;;13.47;61.84
32243;BME280;18731;42.830;24.390;2022-10-31T16:42:56;95137.69;;;14.09;62.20
32243;BME280;18731;42.830;24.390;2022-10-31T16:45:24;95130.06;;;13.87;62.18
32243;BME280;18731;42.830;24.390;2022-10-31T16:47:51;95117.03;;;13.65;62.75
32243;BME280;18731;42.830;24.390;2022-10-31T16:52:45;95113.09;;;13.50;63.05
32243;BME280;18731;42.830;24.390;2022-10-31T16:55:13;95166.91;;;13.66;63.56
32243;BME280;18731;42.830;24.390;2022-10-31T16:57:43;95144.81;;;13.48;63.92
32243;BME280;18731;42.830;24.390;2022-10-31T17:00:24;95168.22;;;13.60;63.97
32243;BME280;18731;42.830;24.390;2022-10-31T17:02:53;95164.41;;;13.61;63.58
32243;BME280;18731;42.830;24.390;2022-10-31T17:05:21;95150.06;;;13.44;63.82
32243;BME280;18731;42.830;24.390;2022-10-31T17:07:47;95155.81;;;13.34;64.39
32243;BME280;18731;42.830;24.390;2022-10-31T17:10:14;95162.50;;;13.28;64.71
32243;BME280;18731;42.830;24.390;2022-10-31T17:12:42;95180.41;;;13.36;64.76
32243;BME280;18731;42.830;24.390;2022-10-31T17:15:26;95180.16;;;13.29;64.87
32243;BME280;18731;42.830;24.390;2022-10-31T17:17:53;95172.31;;;13.24;64.74
32243;BME280;18731;42.830;24.390;2022-10-31T17:20:28;95186.63;;;13.28;64.66
32243;BME280;18731;42.830;24.390;2022-10-31T17:22:55;95162.59;;;13.11;65.02
32243;BME280;18731;42.830;24.390;2022-10-31T17:25:23;95178.81;;;13.14;65.30
32243;BME280;18731;42.830;24.390;2022-10-31T17:27:50;95168.19;;;12.97;65.28
32243;BME280;18731;42.830;24.390;2022-10-31T17:30:20;95191.63;;;13.09;65.24
32243;BME280;18731;42.830;24.390;2022-10-31T17:32:47;95183.00;;;13.03;65.79
32243;BME280;18731;42.830;24.390;2022-10-31T17:35:15;95183.47;;;12.97;65.50
32243;BME280;18731;42.830;24.390;2022-10-31T17:37:42;95191.72;;;12.92;65.79
32243;BME280;18731;42.830;24.390;2022-10-31T17:40:12;95192.38;;;12.88;65.77
32243;BME280;18731;42.830;24.390;2022-10-31T17:42:39;95194.44;;;12.83;66.15
32243;BME280;18731;42.830;24.390;2022-10-31T17:45:05;95193.16;;;12.89;65.67
32243;BME280;18731;42.830;24.390;2022-10-31T17:47:33;95200.72;;;12.87;65.65
32243;BME280;18731;42.830;24.390;2022-10-31T17:49:59;95197.31;;;12.78;66.14
32243;BME280;18731;42.830;24.390;2022-10-31T17:52:24;95193.72;;;12.74;66.14
32243;BME280;18731;42.830;24.390;2022-10-31T17:54:50;95201.41;;;12.75;66.19
32243;BME280;18731;42.830;24.390;2022-10-31T17:57:16;95206.63;;;12.72;66.48
32243;BME280;18731;42.830;24.390;2022-10-31T17:59:42;95201.97;;;12.60;66.80
32243;BME280;18731;42.830;24.390;2022-10-31T18:02:10;95207.84;;;12.53;66.94
32243;BME280;18731;42.830;24.390;2022-10-31T18:04:37;95211.47;;;12.49;66.99
32243;BME280;18731;42.830;24.390;2022-10-31T18:07:06;95211.00;;;12.47;67.34
32243;BME280;18731;42.830;24.390;2022-10-31T18:09:32;95194.66;;;12.40;67.07